createdAt,value
2023-02-27T00:00:12.265Z,1.85
2023-02-27T00:00:43.676Z,1.74
2023-02-27T00:01:15.101Z,1.86
2023-02-27T00:01:46.537Z,1.57
2023-02-27T00:02:17.967Z,2.11
2023-02-27T00:02:49.434Z,2.21
2023-02-27T00:03:20.917Z,2.14
2023-02-27T00:03:52.330Z,1.92
2023-02-27T00:04:23.734Z,1.70
2023-02-27T00:04:55.156Z,1.56
2023-02-27T00:05:26.564Z,1.87
2023-02-27T00:05:57.967Z,1.67
2023-02-27T00:06:29.377Z,1.90
2023-02-27T00:07:00.833Z,1.66
2023-02-27T00:07:32.227Z,1.73
2023-02-27T00:08:03.637Z,2.19
2023-02-27T00:08:35.124Z,1.74
2023-02-27T00:09:06.635Z,2.40
2023-02-27T00:09:38.051Z,1.88
2023-02-27T00:10:09.444Z,1.96
2023-02-27T00:10:40.893Z,2.09
2023-02-27T00:11:12.310Z,1.98
2023-02-27T00:11:43.717Z,1.61
2023-02-27T00:12:15.138Z,1.93
2023-02-27T00:12:46.555Z,2.28
2023-02-27T00:13:17.947Z,2.00
2023-02-27T00:13:49.360Z,1.71
2023-02-27T00:14:20.764Z,2.09
2023-02-27T00:14:52.168Z,1.70
2023-02-27T00:15:23.620Z,1.60
2023-02-27T00:15:55.103Z,1.67
2023-02-27T00:16:26.572Z,1.76
2023-02-27T00:16:57.978Z,1.89
2023-02-27T00:17:29.395Z,1.99
2023-02-27T00:18:00.790Z,1.81
2023-02-27T00:18:32.217Z,1.75
2023-02-27T00:19:03.628Z,1.41
2023-02-27T00:19:35.027Z,1.49
2023-02-27T00:20:06.427Z,1.86
2023-02-27T00:20:37.846Z,1.58
2023-02-27T00:21:09.278Z,1.90
2023-02-27T00:21:40.696Z,1.47
2023-02-27T00:22:12.092Z,1.75
2023-02-27T00:22:43.513Z,1.57
2023-02-27T00:23:14.970Z,1.79
2023-02-27T00:23:46.360Z,1.44
2023-02-27T00:24:17.776Z,1.72
2023-02-27T00:24:49.180Z,1.82
2023-02-27T00:25:20.566Z,1.86
2023-02-27T00:25:51.981Z,1.28
2023-02-27T00:26:23.407Z,1.35
2023-02-27T00:26:54.810Z,2.27
2023-02-27T00:27:26.202Z,1.54
2023-02-27T00:27:57.595Z,1.58
2023-02-27T00:28:29.012Z,1.54
2023-02-27T00:29:00.416Z,1.58
2023-02-27T00:29:31.817Z,1.82
2023-02-27T00:30:03.218Z,1.66
2023-02-27T00:30:34.665Z,1.65
2023-02-27T00:31:06.181Z,1.99
2023-02-27T00:31:37.738Z,1.59
2023-02-27T00:32:09.238Z,1.47
2023-02-27T00:32:40.704Z,1.64
2023-02-27T00:33:12.122Z,1.94
2023-02-27T00:33:43.518Z,1.80
2023-02-27T00:34:14.918Z,1.85
2023-02-27T00:34:46.336Z,1.98
2023-02-27T00:35:17.732Z,1.53
2023-02-27T00:35:49.131Z,1.46
2023-02-27T00:36:20.591Z,1.95
2023-02-27T00:36:51.998Z,1.55
2023-02-27T00:37:23.391Z,1.54
2023-02-27T00:37:54.793Z,2.02
2023-02-27T00:38:26.193Z,1.78
2023-02-27T00:38:57.588Z,1.45
2023-02-27T00:39:28.998Z,1.51
2023-02-27T00:40:00.411Z,1.60
2023-02-27T00:40:31.841Z,1.29
2023-02-27T00:41:03.238Z,1.58
2023-02-27T00:41:34.683Z,1.68
2023-02-27T00:42:06.077Z,1.39
2023-02-27T00:42:37.509Z,1.40
2023-02-27T00:43:08.916Z,1.56
2023-02-27T00:43:40.326Z,1.48
2023-02-27T00:44:11.751Z,1.77
2023-02-27T00:44:43.170Z,2.47
2023-02-27T00:45:14.591Z,2.09
2023-02-27T00:45:45.992Z,1.69
2023-02-27T00:46:17.465Z,1.60
2023-02-27T00:46:48.981Z,1.80
2023-02-27T00:47:20.397Z,1.61
2023-02-27T00:47:51.796Z,1.79
2023-02-27T00:48:23.222Z,1.45
2023-02-27T00:48:54.645Z,1.64
2023-02-27T00:49:26.044Z,1.35
2023-02-27T00:49:57.465Z,1.49
2023-02-27T00:50:28.864Z,1.18
2023-02-27T00:51:00.275Z,1.85
2023-02-27T00:51:31.689Z,1.63
2023-02-27T00:52:03.111Z,1.31
2023-02-27T00:52:34.520Z,1.21
2023-02-27T00:53:05.966Z,1.38
2023-02-27T00:53:37.389Z,1.64
2023-02-27T00:54:08.803Z,1.40
2023-02-27T00:54:40.202Z,1.57
2023-02-27T00:55:11.594Z,2.20
2023-02-27T00:55:43.015Z,1.40
2023-02-27T00:56:14.413Z,1.48
2023-02-27T00:56:45.804Z,1.52
2023-02-27T00:57:17.298Z,1.79
2023-02-27T00:57:48.747Z,1.72
2023-02-27T00:58:20.224Z,1.56
2023-02-27T00:58:51.635Z,1.39
2023-02-27T00:59:23.044Z,1.40
2023-02-27T00:59:54.459Z,1.58
2023-02-27T01:00:25.847Z,1.47
2023-02-27T01:00:57.299Z,1.51
2023-02-27T01:01:28.945Z,1.84
2023-02-27T01:02:00.434Z,1.36
2023-02-27T01:02:31.881Z,1.43
2023-02-27T01:03:03.308Z,1.55
2023-02-27T01:03:34.738Z,1.48
2023-02-27T01:04:06.153Z,1.25
2023-02-27T01:04:37.600Z,1.35
2023-02-27T01:05:09.012Z,1.48
2023-02-27T01:05:40.427Z,1.82
2023-02-27T01:06:11.842Z,1.46
2023-02-27T01:06:43.259Z,1.45
2023-02-27T01:07:14.660Z,1.65
2023-02-27T01:07:46.098Z,1.83
2023-02-27T01:08:17.500Z,1.52
2023-02-27T01:08:48.903Z,1.29
2023-02-27T01:09:20.298Z,1.50
2023-02-27T01:09:51.735Z,1.43
2023-02-27T01:10:23.156Z,1.61
2023-02-27T01:10:54.575Z,1.18
2023-02-27T01:11:26.302Z,1.36
2023-02-27T01:11:57.816Z,1.63
2023-02-27T01:12:29.209Z,1.60
2023-02-27T01:13:00.621Z,1.52
2023-02-27T01:13:32.042Z,1.37
2023-02-27T01:14:03.438Z,1.50
2023-02-27T01:14:34.877Z,1.30
2023-02-27T01:15:06.275Z,1.52
2023-02-27T01:15:37.696Z,1.45
2023-02-27T01:16:09.109Z,1.15
2023-02-27T01:16:40.567Z,1.48
2023-02-27T01:17:11.976Z,1.69
2023-02-27T01:17:43.393Z,1.26
2023-02-27T01:18:14.790Z,1.63
2023-02-27T01:18:46.213Z,1.33
2023-02-27T01:19:17.610Z,1.55
2023-02-27T01:19:49.035Z,1.17
2023-02-27T01:20:20.442Z,1.31
2023-02-27T01:20:51.848Z,1.02
2023-02-27T01:21:23.383Z,1.46
2023-02-27T01:21:54.882Z,1.35
2023-02-27T01:22:26.284Z,1.28
2023-02-27T01:22:57.717Z,1.20
2023-02-27T01:23:29.139Z,1.46
2023-02-27T01:24:00.538Z,1.64
2023-02-27T01:24:31.947Z,1.21
2023-02-27T01:25:03.357Z,1.57
2023-02-27T01:25:34.778Z,1.42
2023-02-27T01:26:06.198Z,1.52
2023-02-27T01:26:37.625Z,1.19
2023-02-27T01:27:09.065Z,1.31
2023-02-27T01:27:40.475Z,1.58
2023-02-27T01:28:11.900Z,1.54
2023-02-27T01:28:43.321Z,1.34
2023-02-27T01:29:14.724Z,1.11
2023-02-27T01:29:46.135Z,1.53
2023-02-27T01:30:17.529Z,1.23
2023-02-27T01:30:48.926Z,1.32
2023-02-27T01:31:20.399Z,1.37
2023-02-27T01:31:51.844Z,1.36
2023-02-27T01:32:23.467Z,1.25
2023-02-27T01:32:54.927Z,1.03
2023-02-27T01:33:26.357Z,1.46
2023-02-27T01:33:57.785Z,1.73
2023-02-27T01:34:29.202Z,1.69
2023-02-27T01:35:00.612Z,1.14
2023-02-27T01:35:32.036Z,1.30
2023-02-27T01:36:03.443Z,1.01
2023-02-27T01:36:34.841Z,1.65
2023-02-27T01:37:06.241Z,1.48
2023-02-27T01:37:37.674Z,1.23
2023-02-27T01:38:09.094Z,1.13
2023-02-27T01:38:40.528Z,1.31
2023-02-27T01:39:11.919Z,1.62
2023-02-27T01:39:43.327Z,1.51
2023-02-27T01:40:14.749Z,1.43
2023-02-27T01:40:46.168Z,1.26
2023-02-27T01:41:17.559Z,1.35
2023-02-27T01:41:48.963Z,1.24
2023-02-27T01:42:20.358Z,1.25
2023-02-27T01:42:51.792Z,1.47
2023-02-27T01:43:23.204Z,1.12
2023-02-27T01:43:54.618Z,1.50
2023-02-27T01:44:26.033Z,1.13
2023-02-27T01:44:57.429Z,1.25
2023-02-27T01:45:28.889Z,1.36
2023-02-27T01:46:00.326Z,1.14
2023-02-27T01:46:31.761Z,1.29
2023-02-27T01:47:03.154Z,1.16
2023-02-27T01:47:34.605Z,1.46
2023-02-27T01:48:06.045Z,1.37
2023-02-27T01:48:37.473Z,1.10
2023-02-27T01:49:08.878Z,1.23
2023-02-27T01:49:40.291Z,1.46
2023-02-27T01:50:11.682Z,1.31
2023-02-27T01:50:43.073Z,1.34
2023-02-27T01:51:14.493Z,1.47
2023-02-27T01:51:45.897Z,1.45
2023-02-27T01:52:17.310Z,1.41
2023-02-27T01:52:48.718Z,1.37
2023-02-27T01:53:20.146Z,1.23
2023-02-27T01:53:51.607Z,1.23
2023-02-27T01:54:22.999Z,1.46
2023-02-27T01:54:54.399Z,1.19
2023-02-27T01:55:25.801Z,0.90
2023-02-27T01:55:57.199Z,1.03
2023-02-27T01:56:28.651Z,1.11
2023-02-27T01:57:00.097Z,1.56
2023-02-27T01:57:31.512Z,1.17
2023-02-27T01:58:02.922Z,1.17
2023-02-27T01:58:34.366Z,1.49
2023-02-27T01:59:05.799Z,1.30
2023-02-27T01:59:37.202Z,1.26
2023-02-27T02:00:08.596Z,1.35
2023-02-27T02:00:39.990Z,1.67
2023-02-27T02:01:11.413Z,1.10
2023-02-27T02:01:42.849Z,1.16
2023-02-27T02:02:14.281Z,1.09
2023-02-27T02:02:45.785Z,1.13
2023-02-27T02:03:17.195Z,1.05
2023-02-27T02:03:48.655Z,1.41
2023-02-27T02:04:20.123Z,1.23
2023-02-27T02:04:51.698Z,1.19
2023-02-27T02:05:23.085Z,0.97
2023-02-27T02:05:54.486Z,1.18
2023-02-27T02:06:25.902Z,1.57
2023-02-27T02:06:57.309Z,1.35
2023-02-27T02:07:28.727Z,1.41
2023-02-27T02:08:00.137Z,1.05
2023-02-27T02:08:31.537Z,1.22
2023-02-27T02:09:02.987Z,1.11
2023-02-27T02:09:34.418Z,1.35
2023-02-27T02:10:05.827Z,0.96
2023-02-27T02:10:37.224Z,1.33
2023-02-27T02:11:08.617Z,1.01
2023-02-27T02:11:40.037Z,0.93
2023-02-27T02:12:11.446Z,1.37
2023-02-27T02:12:42.840Z,1.19
2023-02-27T02:13:14.244Z,1.25
2023-02-27T02:13:45.662Z,1.11
2023-02-27T02:14:17.067Z,0.89
2023-02-27T02:14:48.484Z,0.93
2023-02-27T02:15:19.887Z,1.33
2023-02-27T02:15:51.299Z,1.03
2023-02-27T02:16:22.742Z,0.84
2023-02-27T02:16:54.210Z,1.09
2023-02-27T02:17:25.673Z,1.40
2023-02-27T02:17:57.094Z,1.26
2023-02-27T02:18:28.521Z,1.01
2023-02-27T02:18:59.929Z,1.05
2023-02-27T02:19:31.348Z,1.43
2023-02-27T02:20:02.798Z,1.10
2023-02-27T02:20:34.186Z,1.04
2023-02-27T02:21:06.726Z,1.15
2023-02-27T02:21:38.247Z,1.23
2023-02-27T02:22:09.647Z,1.39
2023-02-27T02:22:41.039Z,0.99
2023-02-27T02:23:12.462Z,0.88
2023-02-27T02:23:43.884Z,1.11
2023-02-27T02:24:15.314Z,0.91
2023-02-27T02:24:46.721Z,1.03
2023-02-27T02:25:18.153Z,1.03
2023-02-27T02:25:49.585Z,1.11
2023-02-27T02:26:22.377Z,1.15
2023-02-27T02:26:54.800Z,1.31
2023-02-27T02:27:26.189Z,1.27
2023-02-27T02:27:57.586Z,0.97
2023-02-27T02:28:28.998Z,1.28
2023-02-27T02:29:00.402Z,0.97
2023-02-27T02:29:31.795Z,1.00
2023-02-27T02:30:03.211Z,1.02
2023-02-27T02:30:34.707Z,1.03
2023-02-27T02:31:06.273Z,0.95
2023-02-27T02:31:37.872Z,1.01
2023-02-27T02:32:09.335Z,1.10
2023-02-27T02:32:40.740Z,0.92
2023-02-27T02:33:12.140Z,1.09
2023-02-27T02:33:43.546Z,1.12
2023-02-27T02:34:14.983Z,0.98
2023-02-27T02:34:46.395Z,0.97
2023-02-27T02:35:17.818Z,1.06
2023-02-27T02:35:49.206Z,1.00
2023-02-27T02:36:20.620Z,0.88
2023-02-27T02:36:52.142Z,1.24
2023-02-27T02:37:23.539Z,1.12
2023-02-27T02:37:54.973Z,1.11
2023-02-27T02:38:26.366Z,0.89
2023-02-27T02:38:57.766Z,1.06
2023-02-27T02:39:29.181Z,1.03
2023-02-27T02:40:00.600Z,0.82
2023-02-27T02:40:32.014Z,1.17
2023-02-27T02:41:03.415Z,1.01
2023-02-27T02:41:34.830Z,1.26
2023-02-27T02:42:06.260Z,1.15
2023-02-27T02:42:37.675Z,0.97
2023-02-27T02:43:09.083Z,1.15
2023-02-27T02:43:40.481Z,0.84
2023-02-27T02:44:11.876Z,0.75
2023-02-27T02:44:43.264Z,0.97
2023-02-27T02:45:14.706Z,0.87
2023-02-27T02:45:46.126Z,0.74
2023-02-27T02:46:17.630Z,0.58
2023-02-27T02:46:49.051Z,0.87
2023-02-27T02:47:20.482Z,0.98
2023-02-27T02:47:51.882Z,1.35
2023-02-27T02:48:23.283Z,0.83
2023-02-27T02:48:54.696Z,1.06
2023-02-27T02:49:26.106Z,1.04
2023-02-27T02:49:57.507Z,1.00
2023-02-27T02:50:28.911Z,1.27
2023-02-27T02:51:00.318Z,0.86
2023-02-27T02:51:31.711Z,0.80
2023-02-27T02:52:03.132Z,1.01
2023-02-27T02:52:34.581Z,1.09
2023-02-27T02:53:06.021Z,1.17
2023-02-27T02:53:37.815Z,1.09
2023-02-27T02:54:09.280Z,1.35
2023-02-27T02:54:40.682Z,1.07
2023-02-27T02:55:12.094Z,0.93
2023-02-27T02:55:43.481Z,0.90
2023-02-27T02:56:14.875Z,0.83
2023-02-27T02:56:46.268Z,0.87
2023-02-27T02:57:17.683Z,0.92
2023-02-27T02:57:49.135Z,1.04
2023-02-27T02:58:20.559Z,0.81
2023-02-27T02:58:51.969Z,1.06
2023-02-27T02:59:23.363Z,1.04
2023-02-27T02:59:54.773Z,1.38
2023-02-27T03:00:26.171Z,1.14
2023-02-27T03:00:57.571Z,1.07
2023-02-27T03:01:29.364Z,1.15
2023-02-27T03:02:00.944Z,0.86
2023-02-27T03:02:32.352Z,0.95
2023-02-27T03:03:03.775Z,0.89
2023-02-27T03:03:35.195Z,1.30
2023-02-27T03:04:06.638Z,1.10
2023-02-27T03:04:38.077Z,0.97
2023-02-27T03:05:09.490Z,0.80
2023-02-27T03:05:40.915Z,0.82
2023-02-27T03:06:12.342Z,1.12
2023-02-27T03:06:43.754Z,1.21
2023-02-27T03:07:15.177Z,0.91
2023-02-27T03:07:46.645Z,0.76
2023-02-27T03:08:18.096Z,1.09
2023-02-27T03:08:49.506Z,0.89
2023-02-27T03:09:20.917Z,0.69
2023-02-27T03:09:52.307Z,0.83
2023-02-27T03:10:23.728Z,0.87
2023-02-27T03:10:55.159Z,1.04
2023-02-27T03:11:26.925Z,0.99
2023-02-27T03:11:58.503Z,1.10
2023-02-27T03:12:29.915Z,0.74
2023-02-27T03:13:01.337Z,1.11
2023-02-27T03:13:32.728Z,1.09
2023-02-27T03:14:04.135Z,1.12
2023-02-27T03:14:35.566Z,1.07
2023-02-27T03:15:06.958Z,1.39
2023-02-27T03:15:38.382Z,1.01
2023-02-27T03:16:09.811Z,1.07
2023-02-27T03:16:41.295Z,1.19
2023-02-27T03:17:12.749Z,1.16
2023-02-27T03:17:44.159Z,1.19
2023-02-27T03:18:15.607Z,0.90
2023-02-27T03:18:47.020Z,1.09
2023-02-27T03:19:18.435Z,1.15
2023-02-27T03:19:49.860Z,1.00
2023-02-27T03:20:21.254Z,1.06
2023-02-27T03:20:52.662Z,0.83
2023-02-27T03:21:24.185Z,0.86
2023-02-27T03:21:55.646Z,0.60
2023-02-27T03:22:27.122Z,0.77
2023-02-27T03:22:58.527Z,0.72
2023-02-27T03:23:29.927Z,1.20
2023-02-27T03:24:01.339Z,0.90
2023-02-27T03:24:32.737Z,1.04
2023-02-27T03:25:04.126Z,1.22
2023-02-27T03:25:35.553Z,0.93
2023-02-27T03:26:06.961Z,0.67
2023-02-27T03:26:38.375Z,0.87
2023-02-27T03:27:09.794Z,1.27
2023-02-27T03:27:41.194Z,1.00
2023-02-27T03:28:12.606Z,0.99
2023-02-27T03:28:44.000Z,0.90
2023-02-27T03:29:15.394Z,0.98
2023-02-27T03:29:46.811Z,1.06
2023-02-27T03:30:18.215Z,0.84
2023-02-27T03:30:49.769Z,1.23
2023-02-27T03:31:21.315Z,1.10
2023-02-27T03:31:52.916Z,0.76
2023-02-27T03:32:24.421Z,1.04
2023-02-27T03:32:55.835Z,0.72
2023-02-27T03:33:27.226Z,1.00
2023-02-27T03:34:00.519Z,1.04
2023-02-27T03:34:32.800Z,1.10
2023-02-27T03:35:04.236Z,0.82
2023-02-27T03:35:35.651Z,0.98
2023-02-27T03:36:07.042Z,0.89
2023-02-27T03:36:38.446Z,1.10
2023-02-27T03:37:09.858Z,0.74
2023-02-27T03:37:41.297Z,0.75
2023-02-27T03:38:12.694Z,1.07
2023-02-27T03:38:44.097Z,0.98
2023-02-27T03:39:15.497Z,0.86
2023-02-27T03:39:46.952Z,1.11
2023-02-27T03:40:18.345Z,1.01
2023-02-27T03:40:49.743Z,0.83
2023-02-27T03:41:21.132Z,0.97
2023-02-27T03:41:52.552Z,0.99
2023-02-27T03:42:23.983Z,1.07
2023-02-27T03:42:55.420Z,0.78
2023-02-27T03:43:26.815Z,0.86
2023-02-27T03:43:58.231Z,0.94
2023-02-27T03:44:29.630Z,0.85
2023-02-27T03:45:01.039Z,0.98
2023-02-27T03:45:32.447Z,0.79
2023-02-27T03:46:03.889Z,0.96
2023-02-27T03:46:35.390Z,0.86
2023-02-27T03:47:06.801Z,0.99
2023-02-27T03:47:38.200Z,1.01
2023-02-27T03:48:09.601Z,0.80
2023-02-27T03:48:41.009Z,0.66
2023-02-27T03:49:12.399Z,0.71
2023-02-27T03:49:43.806Z,0.73
2023-02-27T03:50:15.192Z,0.85
2023-02-27T03:50:46.607Z,1.20
2023-02-27T03:51:17.999Z,0.92
2023-02-27T03:51:49.428Z,0.91
2023-02-27T03:52:20.859Z,0.85
2023-02-27T03:52:52.273Z,0.94
2023-02-27T03:53:23.668Z,0.95
2023-02-27T03:53:55.078Z,0.88
2023-02-27T03:54:26.502Z,0.98
2023-02-27T03:54:57.903Z,0.91
2023-02-27T03:55:29.289Z,0.85
2023-02-27T03:56:00.685Z,0.72
2023-02-27T03:56:32.100Z,0.77
2023-02-27T03:57:03.522Z,1.19
2023-02-27T03:57:34.964Z,1.00
2023-02-27T03:58:06.370Z,0.79
2023-02-27T03:58:37.772Z,1.09
2023-02-27T03:59:09.177Z,0.72
2023-02-27T03:59:40.596Z,0.82
2023-02-27T04:00:12.023Z,0.85
2023-02-27T04:00:43.448Z,0.90
2023-02-27T04:01:14.845Z,1.16
2023-02-27T04:01:46.261Z,0.95
2023-02-27T04:02:17.672Z,0.65
2023-02-27T04:02:49.168Z,0.80
2023-02-27T04:03:20.629Z,0.80
2023-02-27T04:03:52.051Z,0.89
2023-02-27T04:04:23.472Z,1.16
2023-02-27T04:04:54.891Z,1.04
2023-02-27T04:05:26.307Z,0.80
2023-02-27T04:05:57.716Z,0.77
2023-02-27T04:06:29.116Z,0.99
2023-02-27T04:07:00.530Z,1.01
2023-02-27T04:07:31.930Z,0.98
2023-02-27T04:08:03.342Z,0.96
2023-02-27T04:08:34.759Z,0.88
2023-02-27T04:09:06.196Z,0.92
2023-02-27T04:09:37.618Z,1.01
2023-02-27T04:10:09.018Z,0.93
2023-02-27T04:10:40.412Z,0.81
2023-02-27T04:11:11.806Z,0.88
2023-02-27T04:11:43.203Z,1.09
2023-02-27T04:12:14.624Z,0.96
2023-02-27T04:12:46.093Z,0.79
2023-02-27T04:13:17.534Z,0.62
2023-02-27T04:13:48.944Z,0.94
2023-02-27T04:14:20.378Z,0.84
2023-02-27T04:14:51.771Z,0.99
2023-02-27T04:15:23.203Z,0.71
2023-02-27T04:15:54.631Z,0.72
2023-02-27T04:16:26.090Z,0.83
2023-02-27T04:16:57.531Z,0.77
2023-02-27T04:17:28.962Z,0.73
2023-02-27T04:18:00.356Z,0.84
2023-02-27T04:18:31.756Z,0.78
2023-02-27T04:19:03.173Z,0.70
2023-02-27T04:19:34.567Z,0.70
2023-02-27T04:20:05.959Z,1.26
2023-02-27T04:20:37.317Z,0.85
2023-02-27T04:21:08.723Z,0.79
2023-02-27T04:21:40.113Z,0.76
2023-02-27T04:22:11.514Z,0.74
2023-02-27T04:22:42.916Z,0.65
2023-02-27T04:23:14.318Z,0.98
2023-02-27T04:23:45.805Z,0.76
2023-02-27T04:24:17.236Z,0.97
2023-02-27T04:24:48.646Z,0.99
2023-02-27T04:25:20.036Z,0.92
2023-02-27T04:25:51.427Z,0.82
2023-02-27T04:26:22.830Z,0.96
2023-02-27T04:26:54.250Z,0.63
2023-02-27T04:27:25.644Z,0.85
2023-02-27T04:27:57.053Z,0.94
2023-02-27T04:28:28.463Z,0.88
2023-02-27T04:28:59.890Z,0.84
2023-02-27T04:29:31.284Z,0.69
2023-02-27T04:30:02.679Z,1.14
2023-02-27T04:30:34.091Z,0.65
2023-02-27T04:31:05.588Z,0.86
2023-02-27T04:31:37.126Z,0.60
2023-02-27T04:32:08.678Z,1.04
2023-02-27T04:32:40.281Z,1.03
2023-02-27T04:33:11.732Z,0.94
2023-02-27T04:33:43.147Z,0.87
2023-02-27T04:34:14.576Z,0.89
2023-02-27T04:34:45.975Z,0.99
2023-02-27T04:35:17.387Z,0.77
2023-02-27T04:35:48.788Z,0.84
2023-02-27T04:36:20.198Z,0.95
2023-02-27T04:36:51.620Z,0.79
2023-02-27T04:37:23.016Z,0.95
2023-02-27T04:37:54.434Z,0.97
2023-02-27T04:38:25.882Z,0.77
2023-02-27T04:38:57.291Z,0.61
2023-02-27T04:39:28.729Z,0.91
2023-02-27T04:40:00.137Z,0.98
2023-02-27T04:40:31.550Z,0.94
2023-02-27T04:41:03.009Z,0.98
2023-02-27T04:41:34.407Z,1.08
2023-02-27T04:42:05.824Z,0.97
2023-02-27T04:42:37.216Z,0.86
2023-02-27T04:43:08.644Z,0.73
2023-02-27T04:43:40.072Z,0.95
2023-02-27T04:44:11.494Z,0.84
2023-02-27T04:44:42.913Z,0.92
2023-02-27T04:45:15.351Z,0.79
2023-02-27T04:45:46.852Z,0.59
2023-02-27T04:46:18.292Z,0.67
2023-02-27T04:46:49.707Z,0.79
2023-02-27T04:47:21.124Z,0.65
2023-02-27T04:47:52.550Z,0.64
2023-02-27T04:48:23.969Z,0.56
2023-02-27T04:48:55.359Z,0.75
2023-02-27T04:49:26.768Z,0.80
2023-02-27T04:49:58.206Z,0.77
2023-02-27T04:50:29.606Z,0.75
2023-02-27T04:51:01.008Z,0.93
2023-02-27T04:51:32.405Z,1.06
2023-02-27T04:52:03.792Z,0.73
2023-02-27T04:52:35.199Z,0.91
2023-02-27T04:53:06.622Z,0.90
2023-02-27T04:53:38.009Z,1.09
2023-02-27T04:54:09.431Z,0.76
2023-02-27T04:54:40.820Z,0.73
2023-02-27T04:55:12.223Z,0.64
2023-02-27T04:55:43.636Z,0.59
2023-02-27T04:56:15.060Z,0.74
2023-02-27T04:56:46.461Z,1.03
2023-02-27T04:57:17.871Z,0.75
2023-02-27T04:57:49.301Z,0.87
2023-02-27T04:58:20.721Z,0.66
2023-02-27T04:58:52.145Z,0.73
2023-02-27T04:59:23.570Z,0.82
2023-02-27T04:59:54.999Z,0.72
2023-02-27T05:00:26.409Z,0.70
2023-02-27T05:00:57.822Z,0.64
2023-02-27T05:01:29.571Z,0.73
2023-02-27T05:02:01.385Z,0.98
2023-02-27T05:02:33.001Z,0.72
2023-02-27T05:03:04.478Z,0.88
2023-02-27T05:03:35.870Z,0.61
2023-02-27T05:04:07.273Z,0.55
2023-02-27T05:04:38.669Z,0.80
2023-02-27T05:05:10.063Z,0.77
2023-02-27T05:05:41.471Z,0.96
2023-02-27T05:06:12.882Z,0.74
2023-02-27T05:06:44.281Z,0.67
2023-02-27T05:07:15.678Z,0.86
2023-02-27T05:07:47.078Z,0.69
2023-02-27T05:08:18.491Z,0.68
2023-02-27T05:08:49.903Z,0.89
2023-02-27T05:09:21.322Z,1.03
2023-02-27T05:09:52.719Z,0.67
2023-02-27T05:10:24.117Z,0.72
2023-02-27T05:10:55.537Z,0.64
2023-02-27T05:11:27.219Z,0.81
2023-02-27T05:11:58.780Z,0.77
2023-02-27T05:12:30.185Z,0.84
2023-02-27T05:13:01.579Z,0.76
2023-02-27T05:13:32.976Z,0.70
2023-02-27T05:14:04.384Z,0.81
2023-02-27T05:14:35.806Z,0.87
2023-02-27T05:15:07.253Z,1.03
2023-02-27T05:15:38.713Z,0.77
2023-02-27T05:16:10.149Z,0.99
2023-02-27T05:16:41.606Z,0.70
2023-02-27T05:17:13.055Z,0.77
2023-02-27T05:17:44.477Z,0.75
2023-02-27T05:18:15.958Z,0.79
2023-02-27T05:18:47.419Z,0.91
2023-02-27T05:19:18.870Z,0.86
2023-02-27T05:19:50.256Z,0.78
2023-02-27T05:20:21.667Z,0.86
2023-02-27T05:20:53.080Z,0.40
2023-02-27T05:21:24.744Z,0.76
2023-02-27T05:21:56.331Z,0.64
2023-02-27T05:22:27.751Z,0.73
2023-02-27T05:22:59.143Z,0.53
2023-02-27T05:23:30.547Z,0.71
2023-02-27T05:24:02.055Z,0.76
2023-02-27T05:24:33.447Z,0.66
2023-02-27T05:25:04.921Z,0.75
2023-02-27T05:25:36.599Z,1.04
2023-02-27T05:26:08.001Z,0.72
2023-02-27T05:26:39.422Z,0.84
2023-02-27T05:27:10.832Z,0.80
2023-02-27T05:27:42.243Z,0.80
2023-02-27T05:28:13.651Z,0.66
2023-02-27T05:28:45.126Z,1.01
2023-02-27T05:29:16.535Z,0.85
2023-02-27T05:29:47.955Z,0.82
2023-02-27T05:30:19.371Z,0.59
2023-02-27T05:30:50.809Z,0.80
2023-02-27T05:31:22.271Z,1.07
2023-02-27T05:31:53.790Z,0.57
2023-02-27T05:32:25.305Z,0.77
2023-02-27T05:32:56.740Z,0.73
2023-02-27T05:33:28.152Z,0.84
2023-02-27T05:33:59.565Z,0.85
2023-02-27T05:34:30.975Z,0.75
2023-02-27T05:35:02.398Z,0.99
2023-02-27T05:35:33.816Z,0.85
2023-02-27T05:36:05.272Z,0.81
2023-02-27T05:36:36.693Z,0.88
2023-02-27T05:37:08.098Z,0.98
2023-02-27T05:37:39.517Z,0.73
2023-02-27T05:38:10.929Z,0.60
2023-02-27T05:38:42.362Z,0.78
2023-02-27T05:39:13.769Z,0.66
2023-02-27T05:39:45.163Z,0.68
2023-02-27T05:40:16.574Z,0.61
2023-02-27T05:40:47.976Z,0.69
2023-02-27T05:41:19.375Z,0.88
2023-02-27T05:41:50.770Z,0.68
2023-02-27T05:42:22.176Z,0.58
2023-02-27T05:42:53.569Z,0.75
2023-02-27T05:43:24.995Z,0.58
2023-02-27T05:43:56.411Z,0.84
2023-02-27T05:44:27.813Z,0.65
2023-02-27T05:44:59.241Z,0.60
2023-02-27T05:45:30.630Z,0.52
2023-02-27T05:46:02.093Z,0.98
2023-02-27T05:46:33.593Z,0.61
2023-02-27T05:47:05.029Z,0.77
2023-02-27T05:47:36.477Z,0.62
2023-02-27T05:48:07.882Z,0.65
2023-02-27T05:48:39.274Z,0.79
2023-02-27T05:49:10.700Z,0.88
2023-02-27T05:49:42.098Z,0.92
2023-02-27T05:50:13.518Z,0.94
2023-02-27T05:50:44.946Z,0.62
2023-02-27T05:51:16.347Z,0.60
2023-02-27T05:51:47.786Z,0.81
2023-02-27T05:52:19.204Z,0.59
2023-02-27T05:52:50.620Z,0.79
2023-02-27T05:53:22.020Z,0.72
2023-02-27T05:53:53.431Z,0.98
2023-02-27T05:54:24.840Z,0.93
2023-02-27T05:54:56.262Z,0.86
2023-02-27T05:55:27.685Z,0.57
2023-02-27T05:55:59.104Z,0.81
2023-02-27T05:56:30.581Z,0.84
2023-02-27T05:57:01.991Z,0.76
2023-02-27T05:57:33.407Z,0.96
2023-02-27T05:58:04.808Z,0.71
2023-02-27T05:58:36.201Z,0.63
2023-02-27T05:59:07.620Z,0.70
2023-02-27T05:59:39.033Z,0.98
2023-02-27T06:00:10.456Z,0.80
2023-02-27T06:00:41.872Z,0.75
2023-02-27T06:01:13.287Z,0.74
2023-02-27T06:01:46.303Z,0.77
2023-02-27T06:02:17.929Z,0.58
2023-02-27T06:02:49.374Z,0.78
2023-02-27T06:03:20.804Z,0.69
2023-02-27T06:03:52.255Z,0.71
2023-02-27T06:04:23.663Z,0.63
2023-02-27T06:04:55.081Z,0.65
2023-02-27T06:05:26.474Z,0.86
2023-02-27T06:05:57.886Z,0.76
2023-02-27T06:06:29.538Z,0.71
2023-02-27T06:07:01.093Z,0.63
2023-02-27T06:07:32.517Z,0.82
2023-02-27T06:08:03.926Z,0.89
2023-02-27T06:08:35.317Z,0.77
2023-02-27T06:09:06.712Z,0.68
2023-02-27T06:09:38.105Z,0.85
2023-02-27T06:10:09.522Z,0.55
2023-02-27T06:10:40.920Z,0.66
2023-02-27T06:11:12.320Z,0.87
2023-02-27T06:11:43.735Z,0.75
2023-02-27T06:12:15.188Z,0.45
2023-02-27T06:12:46.594Z,0.82
2023-02-27T06:13:17.987Z,0.86
2023-02-27T06:13:49.427Z,0.67
2023-02-27T06:14:20.883Z,0.54
2023-02-27T06:14:52.287Z,0.44
2023-02-27T06:15:23.706Z,0.73
2023-02-27T06:15:55.108Z,0.81
2023-02-27T06:16:26.858Z,0.74
2023-02-27T06:16:58.529Z,0.93
2023-02-27T06:17:29.989Z,0.83
2023-02-27T06:18:01.374Z,0.69
2023-02-27T06:18:32.779Z,0.84
2023-02-27T06:19:05.061Z,0.56
2023-02-27T06:19:36.527Z,0.98
2023-02-27T06:20:07.963Z,0.76
2023-02-27T06:20:39.384Z,0.52
2023-02-27T06:21:10.781Z,0.76
2023-02-27T06:21:42.209Z,0.65
2023-02-27T06:22:13.664Z,0.79
2023-02-27T06:22:45.104Z,0.66
2023-02-27T06:23:16.498Z,0.66
2023-02-27T06:23:47.992Z,0.99
2023-02-27T06:24:21.217Z,0.77
2023-02-27T06:24:53.501Z,0.73
2023-02-27T06:25:24.914Z,0.70
2023-02-27T06:25:56.319Z,0.89
2023-02-27T06:26:28.041Z,0.45
2023-02-27T06:26:59.721Z,0.62
2023-02-27T06:27:31.130Z,0.82
2023-02-27T06:28:02.549Z,0.73
2023-02-27T06:28:33.961Z,0.63
2023-02-27T06:29:05.593Z,0.51
2023-02-27T06:29:37.011Z,0.68
2023-02-27T06:30:08.445Z,0.62
2023-02-27T06:30:39.876Z,0.50
2023-02-27T06:31:11.332Z,0.63
2023-02-27T06:31:42.807Z,0.86
2023-02-27T06:32:14.266Z,0.71
2023-02-27T06:32:45.709Z,0.78
2023-02-27T06:33:17.117Z,0.55
2023-02-27T06:33:48.562Z,0.53
2023-02-27T06:34:20.002Z,0.81
2023-02-27T06:34:51.396Z,0.66
2023-02-27T06:35:22.797Z,0.53
2023-02-27T06:35:54.234Z,0.89
2023-02-27T06:36:25.930Z,0.80
2023-02-27T06:36:57.562Z,0.68
2023-02-27T06:37:28.981Z,0.93
2023-02-27T06:38:00.405Z,0.73
2023-02-27T06:38:31.804Z,0.90
2023-02-27T06:39:03.205Z,0.67
2023-02-27T06:39:34.616Z,0.52
2023-02-27T06:40:06.035Z,0.46
2023-02-27T06:40:37.448Z,0.75
2023-02-27T06:41:08.868Z,0.68
2023-02-27T06:41:40.281Z,0.80
2023-02-27T06:42:11.676Z,0.72
2023-02-27T06:42:43.113Z,1.02
2023-02-27T06:43:14.505Z,0.84
2023-02-27T06:43:45.963Z,0.60
2023-02-27T06:44:19.438Z,0.76
2023-02-27T06:44:51.632Z,0.65
2023-02-27T06:45:23.040Z,0.69
2023-02-27T06:45:54.556Z,0.71
2023-02-27T06:46:26.378Z,0.75
2023-02-27T06:46:57.994Z,1.04
2023-02-27T06:47:29.392Z,1.10
2023-02-27T06:48:00.815Z,0.66
2023-02-27T06:48:32.207Z,0.61
2023-02-27T06:49:03.602Z,0.77
2023-02-27T06:49:35.020Z,0.64
2023-02-27T06:50:06.418Z,0.88
2023-02-27T06:50:37.823Z,0.93
2023-02-27T06:51:09.426Z,0.58
2023-02-27T06:51:41.620Z,0.56
2023-02-27T06:52:13.860Z,0.67
2023-02-27T06:52:45.286Z,0.58
2023-02-27T06:53:17.024Z,0.61
2023-02-27T06:53:48.514Z,0.83
2023-02-27T06:54:19.926Z,0.93
2023-02-27T06:54:51.336Z,0.55
2023-02-27T06:55:22.793Z,0.75
2023-02-27T06:55:54.207Z,0.60
2023-02-27T06:56:25.859Z,0.58
2023-02-27T06:56:57.437Z,0.95
2023-02-27T06:57:28.837Z,0.67
2023-02-27T06:58:00.235Z,0.82
2023-02-27T06:58:31.651Z,0.70